sensor_id;sensor_type;location;lat;lon;timestamp;P1;durP1;ratioP1;P2;durP2;ratioP2
28724;SDS011;43472;48.980;9.646;2022-10-13T00:02:47;22.42;;;9.38;;
28724;SDS011;43472;48.980;9.646;2022-10-13T00:07:49;57.45;;;17.48;;
28724;SDS011;43472;48.980;9.646;2022-10-13T00:12:51;26.55;;;15.82;;
28724;SDS011;43472;48.980;9.646;2022-10-13T00:17:52;28.50;;;11.38;;
28724;SDS011;43472;48.980;9.646;2022-10-13T00:22:55;23.48;;;11.73;;
28724;SDS011;43472;48.980;9.646;2022-10-13T00:27:57;24.05;;;12.55;;
28724;SDS011;43472;48.980;9.646;2022-10-13T00:32:58;26.45;;;11.27;;
28724;SDS011;43472;48.980;9.646;2022-10-13T00:38:00;24.85;;;9.57;;
28724;SDS011;43472;48.980;9.646;2022-10-13T00:43:02;40.47;;;9.15;;
28724;SDS011;43472;48.980;9.646;2022-10-13T00:48:04;23.95;;;9.30;;
28724;SDS011;43472;48.980;9.646;2022-10-13T00:53:06;12.57;;;7.78;;
28724;SDS011;43472;48.980;9.646;2022-10-13T00:58:09;16.15;;;8.80;;
28724;SDS011;43472;48.980;9.646;2022-10-13T01:03:17;20.35;;;10.25;;
28724;SDS011;43472;48.980;9.646;2022-10-13T01:08:20;30.67;;;12.18;;
28724;SDS011;43472;48.980;9.646;2022-10-13T01:25:22;34.28;;;13.45;;
28724;SDS011;43472;48.980;9.646;2022-10-13T01:30:06;28.63;;;12.85;;
28724;SDS011;43472;48.980;9.646;2022-10-13T01:35:19;70.85;;;19.50;;
28724;SDS011;43472;48.980;9.646;2022-10-13T01:45:41;28.08;;;10.13;;
28724;SDS011;43472;48.980;9.646;2022-10-13T01:50:54;18.73;;;9.20;;
28724;SDS011;43472;48.980;9.646;2022-10-13T01:56:00;19.05;;;9.13;;
28724;SDS011;43472;48.980;9.646;2022-10-13T02:01:05;25.92;;;11.63;;
28724;SDS011;43472;48.980;9.646;2022-10-13T02:06:32;27.17;;;12.98;;
28724;SDS011;43472;48.980;9.646;2022-10-13T02:11:49;29.92;;;13.15;;
28724;SDS011;43472;48.980;9.646;2022-10-13T02:22:00;13.45;;;8.40;;
28724;SDS011;43472;48.980;9.646;2022-10-13T02:27:04;17.33;;;8.02;;
28724;SDS011;43472;48.980;9.646;2022-10-13T02:32:06;11.93;;;7.32;;
28724;SDS011;43472;48.980;9.646;2022-10-13T02:37:08;13.13;;;7.25;;
28724;SDS011;43472;48.980;9.646;2022-10-13T02:42:11;15.52;;;8.18;;
28724;SDS011;43472;48.980;9.646;2022-10-13T02:47:13;30.00;;;12.50;;
28724;SDS011;43472;48.980;9.646;2022-10-13T02:52:14;31.05;;;12.35;;
28724;SDS011;43472;48.980;9.646;2022-10-13T02:57:17;30.58;;;14.52;;
28724;SDS011;43472;48.980;9.646;2022-10-13T03:02:19;28.88;;;13.15;;
28724;SDS011;43472;48.980;9.646;2022-10-13T03:07:21;21.60;;;11.77;;
28724;SDS011;43472;48.980;9.646;2022-10-13T03:12:23;31.10;;;15.02;;
28724;SDS011;43472;48.980;9.646;2022-10-13T03:17:25;37.85;;;15.23;;
28724;SDS011;43472;48.980;9.646;2022-10-13T03:22:29;18.83;;;9.98;;
28724;SDS011;43472;48.980;9.646;2022-10-13T03:27:32;42.53;;;15.10;;
28724;SDS011;43472;48.980;9.646;2022-10-13T03:32:34;22.60;;;10.60;;
28724;SDS011;43472;48.980;9.646;2022-10-13T03:37:36;18.13;;;9.60;;
28724;SDS011;43472;48.980;9.646;2022-10-13T03:42:38;22.92;;;10.32;;
28724;SDS011;43472;48.980;9.646;2022-10-13T03:47:39;16.65;;;9.60;;
28724;SDS011;43472;48.980;9.646;2022-10-13T03:52:41;31.10;;;14.30;;
28724;SDS011;43472;48.980;9.646;2022-10-13T03:57:43;21.38;;;9.43;;
28724;SDS011;43472;48.980;9.646;2022-10-13T04:02:47;17.10;;;9.63;;
28724;SDS011;43472;48.980;9.646;2022-10-13T04:07:49;20.13;;;10.63;;
28724;SDS011;43472;48.980;9.646;2022-10-13T04:12:51;14.75;;;8.32;;
28724;SDS011;43472;48.980;9.646;2022-10-13T04:17:53;22.50;;;11.73;;
28724;SDS011;43472;48.980;9.646;2022-10-13T04:22:55;31.80;;;18.38;;
28724;SDS011;43472;48.980;9.646;2022-10-13T04:27:57;21.42;;;13.75;;
28724;SDS011;43472;48.980;9.646;2022-10-13T04:32:59;21.10;;;13.48;;
28724;SDS011;43472;48.980;9.646;2022-10-13T04:38:01;18.73;;;11.85;;
28724;SDS011;43472;48.980;9.646;2022-10-13T04:43:03;16.35;;;9.25;;
28724;SDS011;43472;48.980;9.646;2022-10-13T04:48:04;16.17;;;9.90;;
28724;SDS011;43472;48.980;9.646;2022-10-13T04:53:06;14.75;;;10.32;;
28724;SDS011;43472;48.980;9.646;2022-10-13T04:58:08;13.95;;;9.07;;
28724;SDS011;43472;48.980;9.646;2022-10-13T05:03:10;61.75;;;25.55;;
28724;SDS011;43472;48.980;9.646;2022-10-13T05:08:11;76.32;;;35.70;;
28724;SDS011;43472;48.980;9.646;2022-10-13T05:13:13;87.53;;;35.38;;
28724;SDS011;43472;48.980;9.646;2022-10-13T05:18:15;96.32;;;38.53;;
28724;SDS011;43472;48.980;9.646;2022-10-13T05:23:17;42.72;;;19.92;;
28724;SDS011;43472;48.980;9.646;2022-10-13T05:28:20;23.52;;;13.88;;
28724;SDS011;43472;48.980;9.646;2022-10-13T05:33:22;25.85;;;14.25;;
28724;SDS011;43472;48.980;9.646;2022-10-13T05:38:24;51.15;;;23.25;;
28724;SDS011;43472;48.980;9.646;2022-10-13T05:43:26;69.57;;;31.98;;
28724;SDS011;43472;48.980;9.646;2022-10-13T05:48:28;107.95;;;47.38;;
28724;SDS011;43472;48.980;9.646;2022-10-13T05:53:31;109.70;;;47.20;;
28724;SDS011;43472;48.980;9.646;2022-10-13T05:58:37;98.15;;;44.30;;
28724;SDS011;43472;48.980;9.646;2022-10-13T06:03:44;59.13;;;28.90;;
28724;SDS011;43472;48.980;9.646;2022-10-13T06:08:49;52.22;;;27.20;;
28724;SDS011;43472;48.980;9.646;2022-10-13T06:13:51;41.33;;;23.30;;
28724;SDS011;43472;48.980;9.646;2022-10-13T06:18:53;31.08;;;17.50;;
28724;SDS011;43472;48.980;9.646;2022-10-13T06:23:54;29.38;;;18.05;;
28724;SDS011;43472;48.980;9.646;2022-10-13T06:28:56;31.17;;;18.35;;
28724;SDS011;43472;48.980;9.646;2022-10-13T06:34:00;37.90;;;19.40;;
28724;SDS011;43472;48.980;9.646;2022-10-13T06:39:02;34.67;;;18.75;;
28724;SDS011;43472;48.980;9.646;2022-10-13T06:44:03;32.22;;;18.48;;
28724;SDS011;43472;48.980;9.646;2022-10-13T06:49:05;37.47;;;17.80;;
28724;SDS011;43472;48.980;9.646;2022-10-13T06:54:10;33.10;;;18.85;;
28724;SDS011;43472;48.980;9.646;2022-10-13T06:59:12;53.20;;;24.85;;
28724;SDS011;43472;48.980;9.646;2022-10-13T07:04:14;34.80;;;16.63;;
28724;SDS011;43472;48.980;9.646;2022-10-13T07:09:16;19.73;;;11.07;;
28724;SDS011;43472;48.980;9.646;2022-10-13T07:14:18;21.83;;;11.98;;
28724;SDS011;43472;48.980;9.646;2022-10-13T07:19:20;33.28;;;18.67;;
28724;SDS011;43472;48.980;9.646;2022-10-13T07:24:22;42.78;;;20.13;;
28724;SDS011;43472;48.980;9.646;2022-10-13T07:29:23;32.17;;;17.73;;
28724;SDS011;43472;48.980;9.646;2022-10-13T07:34:25;37.90;;;21.80;;
28724;SDS011;43472;48.980;9.646;2022-10-13T07:39:27;33.38;;;19.17;;
28724;SDS011;43472;48.980;9.646;2022-10-13T07:44:29;37.03;;;19.02;;
28724;SDS011;43472;48.980;9.646;2022-10-13T07:49:31;31.90;;;16.15;;
28724;SDS011;43472;48.980;9.646;2022-10-13T07:54:33;40.53;;;18.10;;
28724;SDS011;43472;48.980;9.646;2022-10-13T07:59:34;36.85;;;16.55;;
28724;SDS011;43472;48.980;9.646;2022-10-13T08:04:36;35.53;;;16.45;;
28724;SDS011;43472;48.980;9.646;2022-10-13T08:09:39;31.40;;;17.33;;
28724;SDS011;43472;48.980;9.646;2022-10-13T08:14:41;34.60;;;18.23;;
28724;SDS011;43472;48.980;9.646;2022-10-13T08:19:43;35.08;;;17.90;;
28724;SDS011;43472;48.980;9.646;2022-10-13T08:24:44;32.75;;;15.35;;
28724;SDS011;43472;48.980;9.646;2022-10-13T08:29:46;27.20;;;15.50;;
28724;SDS011;43472;48.980;9.646;2022-10-13T08:34:48;22.45;;;11.23;;
28724;SDS011;43472;48.980;9.646;2022-10-13T08:39:53;31.17;;;12.13;;
28724;SDS011;43472;48.980;9.646;2022-10-13T08:44:57;34.15;;;15.82;;
28724;SDS011;43472;48.980;9.646;2022-10-13T08:50:22;23.13;;;9.18;;
28724;SDS011;43472;48.980;9.646;2022-10-13T08:55:34;23.83;;;10.32;;
28724;SDS011;43472;48.980;9.646;2022-10-13T09:00:41;29.63;;;12.48;;
28724;SDS011;43472;48.980;9.646;2022-10-13T09:05:45;17.73;;;8.93;;
28724;SDS011;43472;48.980;9.646;2022-10-13T09:11:15;17.55;;;8.95;;
28724;SDS011;43472;48.980;9.646;2022-10-13T09:16:24;19.10;;;7.47;;
28724;SDS011;43472;48.980;9.646;2022-10-13T09:21:27;20.25;;;7.53;;
28724;SDS011;43472;48.980;9.646;2022-10-13T09:26:30;21.27;;;7.78;;
28724;SDS011;43472;48.980;9.646;2022-10-13T09:31:37;20.63;;;8.70;;
28724;SDS011;43472;48.980;9.646;2022-10-13T09:36:53;19.05;;;7.97;;
28724;SDS011;43472;48.980;9.646;2022-10-13T09:52:33;12.32;;;6.38;;
28724;SDS011;43472;48.980;9.646;2022-10-13T09:57:39;15.05;;;6.35;;
28724;SDS011;43472;48.980;9.646;2022-10-13T10:02:53;12.38;;;5.38;;
28724;SDS011;43472;48.980;9.646;2022-10-13T10:08:05;14.25;;;6.03;;
28724;SDS011;43472;48.980;9.646;2022-10-13T10:13:44;13.60;;;5.47;;
28724;SDS011;43472;48.980;9.646;2022-10-13T10:18:57;12.40;;;6.28;;
28724;SDS011;43472;48.980;9.646;2022-10-13T10:24:36;15.05;;;5.30;;
28724;SDS011;43472;48.980;9.646;2022-10-13T10:35:11;13.30;;;4.75;;
28724;SDS011;43472;48.980;9.646;2022-10-13T10:45:35;18.10;;;6.20;;
28724;SDS011;43472;48.980;9.646;2022-10-13T10:55:44;16.45;;;4.90;;
28724;SDS011;43472;48.980;9.646;2022-10-13T11:16:38;18.95;;;5.10;;
28724;SDS011;43472;48.980;9.646;2022-10-13T11:59:26;12.85;;;5.90;;
28724;SDS011;43472;48.980;9.646;2022-10-13T12:04:38;13.18;;;5.05;;
28724;SDS011;43472;48.980;9.646;2022-10-13T12:09:48;14.05;;;4.82;;
28724;SDS011;43472;48.980;9.646;2022-10-13T12:14:52;12.57;;;5.55;;
28724;SDS011;43472;48.980;9.646;2022-10-13T12:20:03;10.57;;;5.90;;
28724;SDS011;43472;48.980;9.646;2022-10-13T12:25:25;12.27;;;4.65;;
28724;SDS011;43472;48.980;9.646;2022-10-13T12:30:30;17.52;;;5.88;;
28724;SDS011;43472;48.980;9.646;2022-10-13T12:35:37;24.33;;;5.40;;
28724;SDS011;43472;48.980;9.646;2022-10-13T12:40:39;9.82;;;4.43;;
28724;SDS011;43472;48.980;9.646;2022-10-13T12:45:40;10.75;;;4.22;;
28724;SDS011;43472;48.980;9.646;2022-10-13T12:50:43;10.35;;;4.28;;
28724;SDS011;43472;48.980;9.646;2022-10-13T12:55:46;14.75;;;4.30;;
28724;SDS011;43472;48.980;9.646;2022-10-13T13:01:03;10.50;;;4.10;;
28724;SDS011;43472;48.980;9.646;2022-10-13T13:06:08;8.43;;;4.50;;
28724;SDS011;43472;48.980;9.646;2022-10-13T13:11:23;16.25;;;5.20;;
28724;SDS011;43472;48.980;9.646;2022-10-13T13:16:34;9.77;;;3.20;;
28724;SDS011;43472;48.980;9.646;2022-10-13T13:21:36;10.05;;;4.53;;
28724;SDS011;43472;48.980;9.646;2022-10-13T13:26:38;15.15;;;4.40;;
28724;SDS011;43472;48.980;9.646;2022-10-13T13:31:39;14.05;;;4.00;;
28724;SDS011;43472;48.980;9.646;2022-10-13T13:36:41;11.32;;;5.05;;
28724;SDS011;43472;48.980;9.646;2022-10-13T13:41:43;11.95;;;3.72;;
28724;SDS011;43472;48.980;9.646;2022-10-13T13:46:45;5.82;;;3.05;;
28724;SDS011;43472;48.980;9.646;2022-10-13T13:51:47;11.88;;;2.75;;
28724;SDS011;43472;48.980;9.646;2022-10-13T13:56:49;10.15;;;3.38;;
28724;SDS011;43472;48.980;9.646;2022-10-13T14:01:55;11.57;;;3.38;;
28724;SDS011;43472;48.980;9.646;2022-10-13T14:06:57;11.35;;;3.10;;
28724;SDS011;43472;48.980;9.646;2022-10-13T14:11:59;5.78;;;2.38;;
28724;SDS011;43472;48.980;9.646;2022-10-13T14:17:01;11.13;;;2.80;;
28724;SDS011;43472;48.980;9.646;2022-10-13T14:22:05;8.15;;;3.35;;
28724;SDS011;43472;48.980;9.646;2022-10-13T14:27:09;11.02;;;3.40;;
28724;SDS011;43472;48.980;9.646;2022-10-13T14:32:11;10.10;;;4.45;;
28724;SDS011;43472;48.980;9.646;2022-10-13T14:37:13;8.10;;;2.80;;
28724;SDS011;43472;48.980;9.646;2022-10-13T14:42:15;15.27;;;3.33;;
28724;SDS011;43472;48.980;9.646;2022-10-13T14:47:17;18.98;;;10.10;;
28724;SDS011;43472;48.980;9.646;2022-10-13T14:52:19;12.15;;;4.95;;
28724;SDS011;43472;48.980;9.646;2022-10-13T14:57:21;13.55;;;5.72;;
28724;SDS011;43472;48.980;9.646;2022-10-13T15:02:23;16.05;;;6.40;;
28724;SDS011;43472;48.980;9.646;2022-10-13T15:07:25;9.00;;;3.88;;
28724;SDS011;43472;48.980;9.646;2022-10-13T15:12:27;10.75;;;4.45;;
28724;SDS011;43472;48.980;9.646;2022-10-13T15:17:29;28.38;;;12.00;;
28724;SDS011;43472;48.980;9.646;2022-10-13T15:22:33;13.93;;;4.50;;
28724;SDS011;43472;48.980;9.646;2022-10-13T15:27:35;8.05;;;4.03;;
28724;SDS011;43472;48.980;9.646;2022-10-13T15:32:42;15.82;;;5.82;;
28724;SDS011;43472;48.980;9.646;2022-10-13T15:37:44;19.42;;;4.60;;
28724;SDS011;43472;48.980;9.646;2022-10-13T15:42:45;13.52;;;3.08;;
28724;SDS011;43472;48.980;9.646;2022-10-13T15:47:49;28.38;;;15.32;;
28724;SDS011;43472;48.980;9.646;2022-10-13T15:52:52;19.15;;;6.75;;
28724;SDS011;43472;48.980;9.646;2022-10-13T15:57:53;16.20;;;5.20;;
28724;SDS011;43472;48.980;9.646;2022-10-13T16:02:55;22.25;;;11.50;;
28724;SDS011;43472;48.980;9.646;2022-10-13T16:07:57;16.88;;;6.40;;
28724;SDS011;43472;48.980;9.646;2022-10-13T16:12:59;19.55;;;6.18;;
28724;SDS011;43472;48.980;9.646;2022-10-13T16:18:01;18.42;;;8.30;;
28724;SDS011;43472;48.980;9.646;2022-10-13T16:23:03;21.50;;;9.50;;
28724;SDS011;43472;48.980;9.646;2022-10-13T16:28:05;22.67;;;9.63;;
28724;SDS011;43472;48.980;9.646;2022-10-13T16:33:07;19.63;;;8.68;;
28724;SDS011;43472;48.980;9.646;2022-10-13T16:38:09;18.08;;;9.13;;
28724;SDS011;43472;48.980;9.646;2022-10-13T16:43:11;17.75;;;8.80;;
28724;SDS011;43472;48.980;9.646;2022-10-13T16:48:13;37.67;;;18.95;;
28724;SDS011;43472;48.980;9.646;2022-10-13T16:53:15;20.88;;;11.98;;
28724;SDS011;43472;48.980;9.646;2022-10-13T16:58:16;16.42;;;8.52;;
28724;SDS011;43472;48.980;9.646;2022-10-13T17:03:18;16.33;;;8.70;;
28724;SDS011;43472;48.980;9.646;2022-10-13T17:08:20;17.05;;;8.75;;
28724;SDS011;43472;48.980;9.646;2022-10-13T17:13:22;22.77;;;12.45;;
28724;SDS011;43472;48.980;9.646;2022-10-13T17:18:24;23.80;;;14.25;;
28724;SDS011;43472;48.980;9.646;2022-10-13T17:23:27;22.13;;;12.93;;
28724;SDS011;43472;48.980;9.646;2022-10-13T17:28:30;18.63;;;8.63;;
28724;SDS011;43472;48.980;9.646;2022-10-13T17:33:33;23.10;;;9.80;;
28724;SDS011;43472;48.980;9.646;2022-10-13T17:38:36;20.92;;;9.27;;
28724;SDS011;43472;48.980;9.646;2022-10-13T17:43:38;19.85;;;9.07;;
28724;SDS011;43472;48.980;9.646;2022-10-13T17:48:41;15.88;;;8.35;;
28724;SDS011;43472;48.980;9.646;2022-10-13T17:53:43;13.40;;;6.75;;
28724;SDS011;43472;48.980;9.646;2022-10-13T17:58:45;12.32;;;6.95;;
28724;SDS011;43472;48.980;9.646;2022-10-13T18:03:48;23.50;;;16.90;;
28724;SDS011;43472;48.980;9.646;2022-10-13T18:08:52;16.73;;;7.07;;
28724;SDS011;43472;48.980;9.646;2022-10-13T18:13:55;12.60;;;7.00;;
28724;SDS011;43472;48.980;9.646;2022-10-13T18:18:56;16.92;;;9.82;;
28724;SDS011;43472;48.980;9.646;2022-10-13T18:23:59;11.68;;;6.70;;
28724;SDS011;43472;48.980;9.646;2022-10-13T18:29:02;19.35;;;6.70;;
28724;SDS011;43472;48.980;9.646;2022-10-13T18:34:07;19.67;;;8.30;;
28724;SDS011;43472;48.980;9.646;2022-10-13T18:39:14;18.13;;;7.03;;
28724;SDS011;43472;48.980;9.646;2022-10-13T18:44:18;11.68;;;6.65;;
28724;SDS011;43472;48.980;9.646;2022-10-13T18:49:21;17.33;;;6.28;;
28724;SDS011;43472;48.980;9.646;2022-10-13T18:54:31;13.77;;;7.75;;
28724;SDS011;43472;48.980;9.646;2022-10-13T18:59:33;18.17;;;11.02;;
28724;SDS011;43472;48.980;9.646;2022-10-13T19:04:38;16.67;;;6.97;;
28724;SDS011;43472;48.980;9.646;2022-10-13T19:09:40;27.77;;;14.27;;
28724;SDS011;43472;48.980;9.646;2022-10-13T19:14:42;16.73;;;7.85;;
28724;SDS011;43472;48.980;9.646;2022-10-13T19:19:44;13.82;;;6.90;;
28724;SDS011;43472;48.980;9.646;2022-10-13T19:24:46;10.55;;;7.30;;
28724;SDS011;43472;48.980;9.646;2022-10-13T19:29:50;21.55;;;10.30;;
28724;SDS011;43472;48.980;9.646;2022-10-13T19:34:52;24.40;;;10.98;;
28724;SDS011;43472;48.980;9.646;2022-10-13T19:39:54;25.15;;;10.27;;
28724;SDS011;43472;48.980;9.646;2022-10-13T19:44:56;18.83;;;8.80;;
28724;SDS011;43472;48.980;9.646;2022-10-13T19:49:59;24.48;;;11.13;;
28724;SDS011;43472;48.980;9.646;2022-10-13T19:55:01;28.25;;;15.98;;
28724;SDS011;43472;48.980;9.646;2022-10-13T20:00:03;40.85;;;24.48;;
28724;SDS011;43472;48.980;9.646;2022-10-13T20:05:05;23.02;;;11.57;;
28724;SDS011;43472;48.980;9.646;2022-10-13T20:10:08;42.53;;;18.08;;
28724;SDS011;43472;48.980;9.646;2022-10-13T20:15:09;37.40;;;14.65;;
28724;SDS011;43472;48.980;9.646;2022-10-13T20:20:11;24.90;;;11.73;;
28724;SDS011;43472;48.980;9.646;2022-10-13T20:25:13;27.85;;;15.07;;
28724;SDS011;43472;48.980;9.646;2022-10-13T20:30:19;24.55;;;12.82;;
28724;SDS011;43472;48.980;9.646;2022-10-13T20:35:21;49.05;;;17.35;;
28724;SDS011;43472;48.980;9.646;2022-10-13T20:40:23;47.60;;;17.23;;
28724;SDS011;43472;48.980;9.646;2022-10-13T20:45:25;35.88;;;12.98;;
28724;SDS011;43472;48.980;9.646;2022-10-13T20:50:27;24.85;;;12.02;;
28724;SDS011;43472;48.980;9.646;2022-10-13T20:55:28;24.27;;;12.05;;
28724;SDS011;43472;48.980;9.646;2022-10-13T21:00:31;20.33;;;11.68;;
28724;SDS011;43472;48.980;9.646;2022-10-13T21:05:33;17.98;;;8.20;;
28724;SDS011;43472;48.980;9.646;2022-10-13T21:10:35;29.13;;;10.70;;
28724;SDS011;43472;48.980;9.646;2022-10-13T21:15:37;12.45;;;8.05;;
28724;SDS011;43472;48.980;9.646;2022-10-13T21:20:40;14.57;;;6.50;;
28724;SDS011;43472;48.980;9.646;2022-10-13T21:25:42;16.95;;;9.20;;
28724;SDS011;43472;48.980;9.646;2022-10-13T21:30:44;31.58;;;13.75;;
28724;SDS011;43472;48.980;9.646;2022-10-13T21:35:46;15.93;;;9.13;;
28724;SDS011;43472;48.980;9.646;2022-10-13T21:40:48;12.85;;;7.63;;
28724;SDS011;43472;48.980;9.646;2022-10-13T21:45:54;20.83;;;11.10;;
28724;SDS011;43472;48.980;9.646;2022-10-13T21:50:55;14.40;;;6.97;;
28724;SDS011;43472;48.980;9.646;2022-10-13T21:56:02;13.85;;;8.70;;
28724;SDS011;43472;48.980;9.646;2022-10-13T22:01:08;21.23;;;9.43;;
28724;SDS011;43472;48.980;9.646;2022-10-13T22:06:12;18.90;;;8.40;;
28724;SDS011;43472;48.980;9.646;2022-10-13T22:11:20;18.52;;;8.95;;
28724;SDS011;43472;48.980;9.646;2022-10-13T22:16:27;10.38;;;7.80;;
28724;SDS011;43472;48.980;9.646;2022-10-13T22:21:33;12.15;;;8.25;;
28724;SDS011;43472;48.980;9.646;2022-10-13T22:26:37;20.05;;;8.82;;
28724;SDS011;43472;48.980;9.646;2022-10-13T22:31:41;26.85;;;11.88;;
28724;SDS011;43472;48.980;9.646;2022-10-13T22:36:43;17.15;;;10.05;;
28724;SDS011;43472;48.980;9.646;2022-10-13T22:41:45;82.85;;;14.02;;
28724;SDS011;43472;48.980;9.646;2022-10-13T22:46:47;56.20;;;13.95;;
28724;SDS011;43472;48.980;9.646;2022-10-13T22:51:49;40.55;;;12.80;;
28724;SDS011;43472;48.980;9.646;2022-10-13T22:56:51;35.20;;;12.07;;
28724;SDS011;43472;48.980;9.646;2022-10-13T23:01:52;45.97;;;11.77;;
28724;SDS011;43472;48.980;9.646;2022-10-13T23:06:54;48.20;;;13.80;;
28724;SDS011;43472;48.980;9.646;2022-10-13T23:11:56;105.15;;;12.90;;
28724;SDS011;43472;48.980;9.646;2022-10-13T23:17:00;45.83;;;10.77;;
28724;SDS011;43472;48.980;9.646;2022-10-13T23:22:02;23.85;;;9.55;;
28724;SDS011;43472;48.980;9.646;2022-10-13T23:27:03;28.95;;;10.05;;
28724;SDS011;43472;48.980;9.646;2022-10-13T23:32:05;59.67;;;11.05;;
28724;SDS011;43472;48.980;9.646;2022-10-13T23:37:10;65.65;;;9.77;;
28724;SDS011;43472;48.980;9.646;2022-10-13T23:42:11;19.27;;;9.75;;
28724;SDS011;43472;48.980;9.646;2022-10-13T23:47:13;23.05;;;8.45;;
28724;SDS011;43472;48.980;9.646;2022-10-13T23:52:17;15.45;;;8.27;;
28724;SDS011;43472;48.980;9.646;2022-10-13T23:57:19;18.15;;;7.95;;
